sensor_id;sensor_type;location;lat;lon;timestamp;temperature;humidity
23283;DHT22;11810;51.178;3.878;2023-06-14T00:01:53;19.60;99.90
23283;DHT22;11810;51.178;3.878;2023-06-14T00:04:19;19.50;99.90
23283;DHT22;11810;51.178;3.878;2023-06-14T00:06:46;19.50;99.90
23283;DHT22;11810;51.178;3.878;2023-06-14T00:09:12;19.50;99.90
23283;DHT22;11810;51.178;3.878;2023-06-14T00:11:40;19.40;99.90
23283;DHT22;11810;51.178;3.878;2023-06-14T00:14:06;19.50;99.90
23283;DHT22;11810;51.178;3.878;2023-06-14T00:16:32;19.40;99.90
23283;DHT22;11810;51.178;3.878;2023-06-14T00:18:59;19.30;99.90
23283;DHT22;11810;51.178;3.878;2023-06-14T00:21:25;19.30;99.90
23283;DHT22;11810;51.178;3.878;2023-06-14T00:23:54;19.30;99.90
23283;DHT22;11810;51.178;3.878;2023-06-14T00:26:20;19.30;99.90
23283;DHT22;11810;51.178;3.878;2023-06-14T00:28:45;19.20;99.90
23283;DHT22;11810;51.178;3.878;2023-06-14T00:31:11;19.20;99.90
23283;DHT22;11810;51.178;3.878;2023-06-14T00:33:37;19.30;99.90
23283;DHT22;11810;51.178;3.878;2023-06-14T00:36:03;19.30;99.90
23283;DHT22;11810;51.178;3.878;2023-06-14T00:38:29;19.10;99.90
23283;DHT22;11810;51.178;3.878;2023-06-14T00:40:55;19.10;99.90
23283;DHT22;11810;51.178;3.878;2023-06-14T00:43:21;18.90;99.90
23283;DHT22;11810;51.178;3.878;2023-06-14T00:45:47;18.80;99.90
23283;DHT22;11810;51.178;3.878;2023-06-14T00:48:15;18.90;99.90
23283;DHT22;11810;51.178;3.878;2023-06-14T00:50:41;18.70;99.90
23283;DHT22;11810;51.178;3.878;2023-06-14T00:53:12;18.70;99.90
23283;DHT22;11810;51.178;3.878;2023-06-14T00:55:38;18.60;99.90
23283;DHT22;11810;51.178;3.878;2023-06-14T00:58:04;18.50;99.90
23283;DHT22;11810;51.178;3.878;2023-06-14T01:00:30;18.50;99.90
23283;DHT22;11810;51.178;3.878;2023-06-14T01:02:56;18.50;99.90
23283;DHT22;11810;51.178;3.878;2023-06-14T01:05:23;18.40;99.90
23283;DHT22;11810;51.178;3.878;2023-06-14T01:13:31;18.10;99.90
23283;DHT22;11810;51.178;3.878;2023-06-14T01:15:59;18.20;99.90
23283;DHT22;11810;51.178;3.878;2023-06-14T01:18:28;18.00;99.90
23283;DHT22;11810;51.178;3.878;2023-06-14T01:20:55;18.00;99.90
23283;DHT22;11810;51.178;3.878;2023-06-14T01:23:22;17.90;99.90
23283;DHT22;11810;51.178;3.878;2023-06-14T01:25:49;17.90;99.90
23283;DHT22;11810;51.178;3.878;2023-06-14T01:28:19;17.90;99.90
23283;DHT22;11810;51.178;3.878;2023-06-14T01:30:51;17.90;99.90
23283;DHT22;11810;51.178;3.878;2023-06-14T01:33:24;17.80;99.90
23283;DHT22;11810;51.178;3.878;2023-06-14T01:35:52;17.70;99.90
23283;DHT22;11810;51.178;3.878;2023-06-14T01:38:21;17.50;99.90
23283;DHT22;11810;51.178;3.878;2023-06-14T01:40:48;17.60;99.90
23283;DHT22;11810;51.178;3.878;2023-06-14T01:43:15;17.70;99.90
23283;DHT22;11810;51.178;3.878;2023-06-14T01:45:46;17.70;99.90
23283;DHT22;11810;51.178;3.878;2023-06-14T01:48:13;17.60;99.90
23283;DHT22;11810;51.178;3.878;2023-06-14T01:50:40;17.60;99.90
23283;DHT22;11810;51.178;3.878;2023-06-14T01:53:10;17.60;99.90
23283;DHT22;11810;51.178;3.878;2023-06-14T01:55:36;17.50;99.90
23283;DHT22;11810;51.178;3.878;2023-06-14T01:58:09;17.50;99.90
23283;DHT22;11810;51.178;3.878;2023-06-14T02:00:35;17.40;99.90
23283;DHT22;11810;51.178;3.878;2023-06-14T02:03:02;17.30;99.90
23283;DHT22;11810;51.178;3.878;2023-06-14T02:05:30;17.30;99.90
23283;DHT22;11810;51.178;3.878;2023-06-14T02:07:56;17.40;99.90
23283;DHT22;11810;51.178;3.878;2023-06-14T02:10:22;17.30;99.90
23283;DHT22;11810;51.178;3.878;2023-06-14T02:12:48;17.30;99.90
23283;DHT22;11810;51.178;3.878;2023-06-14T02:15:14;17.30;99.90
23283;DHT22;11810;51.178;3.878;2023-06-14T02:17:48;17.40;99.90
23283;DHT22;11810;51.178;3.878;2023-06-14T02:20:17;17.40;99.90
23283;DHT22;11810;51.178;3.878;2023-06-14T02:22:44;17.30;99.90
23283;DHT22;11810;51.178;3.878;2023-06-14T02:25:11;17.30;99.90
23283;DHT22;11810;51.178;3.878;2023-06-14T02:27:37;17.20;99.90
23283;DHT22;11810;51.178;3.878;2023-06-14T02:30:03;17.10;99.90
23283;DHT22;11810;51.178;3.878;2023-06-14T02:32:29;17.10;99.90
23283;DHT22;11810;51.178;3.878;2023-06-14T02:34:55;17.20;99.90
23283;DHT22;11810;51.178;3.878;2023-06-14T02:37:21;17.10;99.90
23283;DHT22;11810;51.178;3.878;2023-06-14T02:39:47;17.20;99.90
23283;DHT22;11810;51.178;3.878;2023-06-14T02:42:12;17.20;99.90
23283;DHT22;11810;51.178;3.878;2023-06-14T02:44:38;17.10;99.90
23283;DHT22;11810;51.178;3.878;2023-06-14T02:47:05;16.90;99.90
23283;DHT22;11810;51.178;3.878;2023-06-14T02:49:31;16.90;99.90
23283;DHT22;11810;51.178;3.878;2023-06-14T02:51:57;16.80;99.90
23283;DHT22;11810;51.178;3.878;2023-06-14T02:54:23;16.80;99.90
23283;DHT22;11810;51.178;3.878;2023-06-14T02:56:49;16.80;99.90
23283;DHT22;11810;51.178;3.878;2023-06-14T02:59:16;16.80;99.90
23283;DHT22;11810;51.178;3.878;2023-06-14T03:01:42;16.70;99.90
23283;DHT22;11810;51.178;3.878;2023-06-14T03:04:08;16.70;99.90
23283;DHT22;11810;51.178;3.878;2023-06-14T03:06:35;16.60;99.90
23283;DHT22;11810;51.178;3.878;2023-06-14T03:09:02;16.60;99.90
23283;DHT22;11810;51.178;3.878;2023-06-14T03:11:31;16.50;99.90
23283;DHT22;11810;51.178;3.878;2023-06-14T03:13:57;16.40;99.90
23283;DHT22;11810;51.178;3.878;2023-06-14T03:16:23;16.20;99.90
23283;DHT22;11810;51.178;3.878;2023-06-14T03:18:51;16.20;99.90
23283;DHT22;11810;51.178;3.878;2023-06-14T03:21:21;16.10;99.90
23283;DHT22;11810;51.178;3.878;2023-06-14T03:23:47;16.10;99.90
23283;DHT22;11810;51.178;3.878;2023-06-14T03:26:14;16.10;99.90
23283;DHT22;11810;51.178;3.878;2023-06-14T03:28:47;16.10;99.90
23283;DHT22;11810;51.178;3.878;2023-06-14T03:31:14;16.00;99.90
23283;DHT22;11810;51.178;3.878;2023-06-14T03:33:40;15.90;99.90
23283;DHT22;11810;51.178;3.878;2023-06-14T03:36:07;15.90;99.90
23283;DHT22;11810;51.178;3.878;2023-06-14T03:38:33;16.00;99.90
23283;DHT22;11810;51.178;3.878;2023-06-14T03:41:00;15.90;99.90
23283;DHT22;11810;51.178;3.878;2023-06-14T03:43:26;15.80;99.90
23283;DHT22;11810;51.178;3.878;2023-06-14T03:45:51;15.80;99.90
23283;DHT22;11810;51.178;3.878;2023-06-14T03:48:17;15.70;99.90
23283;DHT22;11810;51.178;3.878;2023-06-14T03:50:43;15.70;99.90
23283;DHT22;11810;51.178;3.878;2023-06-14T03:53:10;15.80;99.90
23283;DHT22;11810;51.178;3.878;2023-06-14T03:55:36;15.70;99.90
23283;DHT22;11810;51.178;3.878;2023-06-14T03:58:03;15.80;99.90
23283;DHT22;11810;51.178;3.878;2023-06-14T04:00:29;15.70;99.90
23283;DHT22;11810;51.178;3.878;2023-06-14T04:02:55;15.70;99.90
23283;DHT22;11810;51.178;3.878;2023-06-14T04:05:21;15.70;99.90
23283;DHT22;11810;51.178;3.878;2023-06-14T04:07:48;15.70;99.90
23283;DHT22;11810;51.178;3.878;2023-06-14T04:10:16;15.70;99.90
23283;DHT22;11810;51.178;3.878;2023-06-14T04:12:42;15.60;99.90
23283;DHT22;11810;51.178;3.878;2023-06-14T04:15:09;15.70;99.90
23283;DHT22;11810;51.178;3.878;2023-06-14T04:17:36;15.60;99.90
23283;DHT22;11810;51.178;3.878;2023-06-14T04:20:03;15.70;99.90
23283;DHT22;11810;51.178;3.878;2023-06-14T04:22:31;15.70;99.90
23283;DHT22;11810;51.178;3.878;2023-06-14T04:24:57;15.70;99.90
23283;DHT22;11810;51.178;3.878;2023-06-14T04:27:26;15.70;99.90
23283;DHT22;11810;51.178;3.878;2023-06-14T04:29:53;15.80;99.90
23283;DHT22;11810;51.178;3.878;2023-06-14T04:32:25;15.80;99.90
23283;DHT22;11810;51.178;3.878;2023-06-14T04:34:55;15.80;99.90
23283;DHT22;11810;51.178;3.878;2023-06-14T04:37:22;15.90;99.90
23283;DHT22;11810;51.178;3.878;2023-06-14T04:39:48;15.90;99.90
23283;DHT22;11810;51.178;3.878;2023-06-14T04:42:16;16.00;99.90
23283;DHT22;11810;51.178;3.878;2023-06-14T04:44:42;16.20;99.90
23283;DHT22;11810;51.178;3.878;2023-06-14T04:47:10;16.30;99.90
23283;DHT22;11810;51.178;3.878;2023-06-14T04:49:38;16.30;99.90
23283;DHT22;11810;51.178;3.878;2023-06-14T04:52:05;16.50;99.90
23283;DHT22;11810;51.178;3.878;2023-06-14T04:54:32;16.50;99.90
23283;DHT22;11810;51.178;3.878;2023-06-14T04:56:58;16.60;99.90
23283;DHT22;11810;51.178;3.878;2023-06-14T04:59:25;16.70;99.90
23283;DHT22;11810;51.178;3.878;2023-06-14T05:01:51;17.00;99.90
23283;DHT22;11810;51.178;3.878;2023-06-14T05:04:19;17.30;99.90
23283;DHT22;11810;51.178;3.878;2023-06-14T05:06:45;17.50;99.90
23283;DHT22;11810;51.178;3.878;2023-06-14T05:09:14;17.70;99.90
23283;DHT22;11810;51.178;3.878;2023-06-14T05:11:40;18.00;99.90
23283;DHT22;11810;51.178;3.878;2023-06-14T05:14:12;18.30;99.90
23283;DHT22;11810;51.178;3.878;2023-06-14T05:16:39;18.60;99.90
23283;DHT22;11810;51.178;3.878;2023-06-14T05:19:05;18.90;99.90
23283;DHT22;11810;51.178;3.878;2023-06-14T05:21:32;19.10;99.90
23283;DHT22;11810;51.178;3.878;2023-06-14T05:23:59;19.30;99.90
23283;DHT22;11810;51.178;3.878;2023-06-14T05:26:25;19.50;99.90
23283;DHT22;11810;51.178;3.878;2023-06-14T05:28:57;19.90;99.90
23283;DHT22;11810;51.178;3.878;2023-06-14T05:31:24;20.20;99.90
23283;DHT22;11810;51.178;3.878;2023-06-14T05:33:51;20.50;99.90
23283;DHT22;11810;51.178;3.878;2023-06-14T05:36:17;20.70;99.90
23283;DHT22;11810;51.178;3.878;2023-06-14T05:38:44;21.20;99.90
23283;DHT22;11810;51.178;3.878;2023-06-14T05:41:10;21.50;99.90
23283;DHT22;11810;51.178;3.878;2023-06-14T05:43:36;21.70;99.90
23283;DHT22;11810;51.178;3.878;2023-06-14T05:46:02;22.00;99.90
23283;DHT22;11810;51.178;3.878;2023-06-14T05:48:30;22.40;99.90
23283;DHT22;11810;51.178;3.878;2023-06-14T05:50:56;22.80;99.90
23283;DHT22;11810;51.178;3.878;2023-06-14T05:53:22;23.30;99.90
23283;DHT22;11810;51.178;3.878;2023-06-14T05:55:48;23.60;99.90
23283;DHT22;11810;51.178;3.878;2023-06-14T05:58:15;24.00;99.90
23283;DHT22;11810;51.178;3.878;2023-06-14T06:00:42;24.40;99.90
23283;DHT22;11810;51.178;3.878;2023-06-14T06:03:07;24.50;99.90
23283;DHT22;11810;51.178;3.878;2023-06-14T06:05:34;24.60;99.90
23283;DHT22;11810;51.178;3.878;2023-06-14T06:08:00;25.10;99.90
23283;DHT22;11810;51.178;3.878;2023-06-14T06:10:26;25.30;99.90
23283;DHT22;11810;51.178;3.878;2023-06-14T06:12:52;25.60;99.90
23283;DHT22;11810;51.178;3.878;2023-06-14T06:15:20;26.00;99.90
23283;DHT22;11810;51.178;3.878;2023-06-14T06:17:46;26.20;99.90
23283;DHT22;11810;51.178;3.878;2023-06-14T06:20:12;26.40;99.90
23283;DHT22;11810;51.178;3.878;2023-06-14T06:22:38;26.80;99.90
23283;DHT22;11810;51.178;3.878;2023-06-14T06:25:05;27.30;99.90
23283;DHT22;11810;51.178;3.878;2023-06-14T06:27:32;27.60;99.90
23283;DHT22;11810;51.178;3.878;2023-06-14T06:29:58;27.50;99.90
23283;DHT22;11810;51.178;3.878;2023-06-14T06:32:24;27.70;99.90
23283;DHT22;11810;51.178;3.878;2023-06-14T06:34:50;28.20;99.90
23283;DHT22;11810;51.178;3.878;2023-06-14T06:37:17;28.40;99.90
23283;DHT22;11810;51.178;3.878;2023-06-14T06:39:43;28.70;99.90
23283;DHT22;11810;51.178;3.878;2023-06-14T06:42:09;29.30;99.90
23283;DHT22;11810;51.178;3.878;2023-06-14T06:44:36;29.60;99.90
23283;DHT22;11810;51.178;3.878;2023-06-14T06:47:02;29.60;99.90
23283;DHT22;11810;51.178;3.878;2023-06-14T06:49:28;29.70;99.90
23283;DHT22;11810;51.178;3.878;2023-06-14T06:52:02;30.00;99.90
23283;DHT22;11810;51.178;3.878;2023-06-14T06:54:27;30.20;99.90
23283;DHT22;11810;51.178;3.878;2023-06-14T06:56:53;30.80;99.90
23283;DHT22;11810;51.178;3.878;2023-06-14T06:59:20;30.80;99.90
23283;DHT22;11810;51.178;3.878;2023-06-14T07:01:46;30.60;99.90
23283;DHT22;11810;51.178;3.878;2023-06-14T07:04:13;31.20;99.90
23283;DHT22;11810;51.178;3.878;2023-06-14T07:06:39;32.10;99.80
23283;DHT22;11810;51.178;3.878;2023-06-14T07:09:05;32.10;98.90
23283;DHT22;11810;51.178;3.878;2023-06-14T07:11:34;31.90;99.30
23283;DHT22;11810;51.178;3.878;2023-06-14T07:14:00;31.80;98.80
23283;DHT22;11810;51.178;3.878;2023-06-14T07:16:26;32.00;98.50
23283;DHT22;11810;51.178;3.878;2023-06-14T07:18:52;31.90;98.20
23283;DHT22;11810;51.178;3.878;2023-06-14T07:21:18;31.80;98.40
23283;DHT22;11810;51.178;3.878;2023-06-14T07:23:44;32.00;97.70
23283;DHT22;11810;51.178;3.878;2023-06-14T07:26:10;32.20;97.10
23283;DHT22;11810;51.178;3.878;2023-06-14T07:28:36;32.30;96.90
23283;DHT22;11810;51.178;3.878;2023-06-14T07:31:02;32.60;96.60
23283;DHT22;11810;51.178;3.878;2023-06-14T07:33:28;33.10;95.80
23283;DHT22;11810;51.178;3.878;2023-06-14T07:35:54;32.50;95.70
23283;DHT22;11810;51.178;3.878;2023-06-14T07:38:20;33.00;95.20
23283;DHT22;11810;51.178;3.878;2023-06-14T07:40:46;33.00;95.00
23283;DHT22;11810;51.178;3.878;2023-06-14T07:43:12;32.90;95.20
23283;DHT22;11810;51.178;3.878;2023-06-14T07:45:38;33.20;95.20
23283;DHT22;11810;51.178;3.878;2023-06-14T07:48:04;33.70;94.10
23283;DHT22;11810;51.178;3.878;2023-06-14T07:50:30;33.80;94.30
23283;DHT22;11810;51.178;3.878;2023-06-14T07:52:56;34.20;93.40
23283;DHT22;11810;51.178;3.878;2023-06-14T07:55:22;34.70;92.40
23283;DHT22;11810;51.178;3.878;2023-06-14T07:57:48;35.20;91.40
23283;DHT22;11810;51.178;3.878;2023-06-14T08:00:15;35.80;90.70
23283;DHT22;11810;51.178;3.878;2023-06-14T08:02:42;35.80;90.60
23283;DHT22;11810;51.178;3.878;2023-06-14T08:05:09;35.90;89.70
23283;DHT22;11810;51.178;3.878;2023-06-14T08:07:37;36.30;87.20
23283;DHT22;11810;51.178;3.878;2023-06-14T08:10:04;35.90;89.00
23283;DHT22;11810;51.178;3.878;2023-06-14T08:12:31;35.80;87.80
23283;DHT22;11810;51.178;3.878;2023-06-14T08:14:57;35.10;86.90
23283;DHT22;11810;51.178;3.878;2023-06-14T08:17:22;35.00;85.70
23283;DHT22;11810;51.178;3.878;2023-06-14T08:19:49;35.70;85.60
23283;DHT22;11810;51.178;3.878;2023-06-14T08:22:15;36.20;84.90
23283;DHT22;11810;51.178;3.878;2023-06-14T08:24:43;36.10;83.90
23283;DHT22;11810;51.178;3.878;2023-06-14T08:27:10;35.70;83.70
23283;DHT22;11810;51.178;3.878;2023-06-14T08:29:36;36.10;83.10
23283;DHT22;11810;51.178;3.878;2023-06-14T08:32:04;36.40;82.80
23283;DHT22;11810;51.178;3.878;2023-06-14T08:34:30;36.90;81.30
23283;DHT22;11810;51.178;3.878;2023-06-14T08:36:56;37.10;79.60
23283;DHT22;11810;51.178;3.878;2023-06-14T08:39:22;37.30;79.20
23283;DHT22;11810;51.178;3.878;2023-06-14T08:41:48;37.20;77.70
23283;DHT22;11810;51.178;3.878;2023-06-14T08:44:17;37.50;77.10
23283;DHT22;11810;51.178;3.878;2023-06-14T08:46:43;37.90;76.70
23283;DHT22;11810;51.178;3.878;2023-06-14T08:49:13;37.80;75.70
23283;DHT22;11810;51.178;3.878;2023-06-14T08:51:39;38.50;74.90
23283;DHT22;11810;51.178;3.878;2023-06-14T08:54:06;38.20;71.80
23283;DHT22;11810;51.178;3.878;2023-06-14T08:56:32;37.90;71.40
23283;DHT22;11810;51.178;3.878;2023-06-14T08:59:00;37.90;71.00
23283;DHT22;11810;51.178;3.878;2023-06-14T09:01:33;38.10;69.80
23283;DHT22;11810;51.178;3.878;2023-06-14T09:04:00;38.00;69.40
23283;DHT22;11810;51.178;3.878;2023-06-14T09:06:26;38.20;70.60
23283;DHT22;11810;51.178;3.878;2023-06-14T09:08:54;38.70;70.60
23283;DHT22;11810;51.178;3.878;2023-06-14T09:11:23;38.40;70.00
23283;DHT22;11810;51.178;3.878;2023-06-14T09:13:50;38.40;71.70
23283;DHT22;11810;51.178;3.878;2023-06-14T09:16:16;37.50;70.60
23283;DHT22;11810;51.178;3.878;2023-06-14T09:18:44;37.50;71.70
23283;DHT22;11810;51.178;3.878;2023-06-14T09:21:11;38.10;70.20
23283;DHT22;11810;51.178;3.878;2023-06-14T09:23:39;38.20;69.30
23283;DHT22;11810;51.178;3.878;2023-06-14T09:26:09;38.40;68.20
23283;DHT22;11810;51.178;3.878;2023-06-14T09:28:36;38.70;67.50
23283;DHT22;11810;51.178;3.878;2023-06-14T09:31:02;38.70;67.80
23283;DHT22;11810;51.178;3.878;2023-06-14T09:33:28;38.90;66.20
23283;DHT22;11810;51.178;3.878;2023-06-14T09:35:54;38.70;66.90
23283;DHT22;11810;51.178;3.878;2023-06-14T09:38:20;38.00;66.60
23283;DHT22;11810;51.178;3.878;2023-06-14T09:40:46;38.10;66.30
23283;DHT22;11810;51.178;3.878;2023-06-14T09:43:12;38.00;66.80
23283;DHT22;11810;51.178;3.878;2023-06-14T09:45:39;38.40;66.20
23283;DHT22;11810;51.178;3.878;2023-06-14T09:48:11;38.70;66.00
23283;DHT22;11810;51.178;3.878;2023-06-14T09:50:46;38.80;63.80
23283;DHT22;11810;51.178;3.878;2023-06-14T09:53:13;38.80;64.10
23283;DHT22;11810;51.178;3.878;2023-06-14T09:55:41;38.20;64.40
23283;DHT22;11810;51.178;3.878;2023-06-14T09:58:09;38.70;65.10
23283;DHT22;11810;51.178;3.878;2023-06-14T10:00:36;38.70;63.50
23283;DHT22;11810;51.178;3.878;2023-06-14T10:03:16;38.60;62.50
23283;DHT22;11810;51.178;3.878;2023-06-14T10:05:45;38.90;63.10
23283;DHT22;11810;51.178;3.878;2023-06-14T10:08:15;39.10;63.00
23283;DHT22;11810;51.178;3.878;2023-06-14T10:10:43;39.00;62.40
23283;DHT22;11810;51.178;3.878;2023-06-14T10:13:09;38.70;62.30
23283;DHT22;11810;51.178;3.878;2023-06-14T10:24:12;39.70;60.60
23283;DHT22;11810;51.178;3.878;2023-06-14T10:26:57;39.50;60.30
23283;DHT22;11810;51.178;3.878;2023-06-14T10:29:23;40.00;59.80
23283;DHT22;11810;51.178;3.878;2023-06-14T10:31:50;40.40;59.00
23283;DHT22;11810;51.178;3.878;2023-06-14T10:37:06;40.80;57.90
23283;DHT22;11810;51.178;3.878;2023-06-14T10:39:42;40.80;59.60
23283;DHT22;11810;51.178;3.878;2023-06-14T10:42:09;40.30;56.60
23283;DHT22;11810;51.178;3.878;2023-06-14T10:44:40;40.00;56.90
23283;DHT22;11810;51.178;3.878;2023-06-14T10:47:30;39.70;56.30
23283;DHT22;11810;51.178;3.878;2023-06-14T10:50:11;39.60;55.50
23283;DHT22;11810;51.178;3.878;2023-06-14T10:52:43;39.10;56.50
23283;DHT22;11810;51.178;3.878;2023-06-14T10:55:16;39.70;56.90
23283;DHT22;11810;51.178;3.878;2023-06-14T10:57:53;39.90;56.60
23283;DHT22;11810;51.178;3.878;2023-06-14T11:00:23;39.80;57.20
23283;DHT22;11810;51.178;3.878;2023-06-14T11:03:36;39.80;55.30
23283;DHT22;11810;51.178;3.878;2023-06-14T11:05:57;39.80;55.00
23283;DHT22;11810;51.178;3.878;2023-06-14T11:11:12;39.40;52.80
23283;DHT22;11810;51.178;3.878;2023-06-14T11:13:43;39.50;54.00
23283;DHT22;11810;51.178;3.878;2023-06-14T11:16:17;39.00;53.90
23283;DHT22;11810;51.178;3.878;2023-06-14T11:18:46;39.30;54.90
23283;DHT22;11810;51.178;3.878;2023-06-14T11:21:19;39.10;55.00
23283;DHT22;11810;51.178;3.878;2023-06-14T11:23:52;39.10;55.80
23283;DHT22;11810;51.178;3.878;2023-06-14T11:26:31;39.60;54.80
23283;DHT22;11810;51.178;3.878;2023-06-14T11:29:00;39.70;54.50
23283;DHT22;11810;51.178;3.878;2023-06-14T11:31:27;39.40;55.50
23283;DHT22;11810;51.178;3.878;2023-06-14T11:33:57;39.20;55.60
23283;DHT22;11810;51.178;3.878;2023-06-14T11:36:28;39.70;54.40
23283;DHT22;11810;51.178;3.878;2023-06-14T11:39:01;40.20;53.90
23283;DHT22;11810;51.178;3.878;2023-06-14T11:41:45;40.60;53.80
23283;DHT22;11810;51.178;3.878;2023-06-14T11:44:11;40.80;54.10
23283;DHT22;11810;51.178;3.878;2023-06-14T11:46:38;40.90;53.20
23283;DHT22;11810;51.178;3.878;2023-06-14T11:49:04;39.90;52.80
23283;DHT22;11810;51.178;3.878;2023-06-14T11:51:33;39.50;53.60
23283;DHT22;11810;51.178;3.878;2023-06-14T11:54:04;38.90;54.00
23283;DHT22;11810;51.178;3.878;2023-06-14T11:56:31;39.40;53.00
23283;DHT22;11810;51.178;3.878;2023-06-14T11:58:58;38.90;54.30
23283;DHT22;11810;51.178;3.878;2023-06-14T12:01:24;39.60;54.00
23283;DHT22;11810;51.178;3.878;2023-06-14T12:03:53;39.30;53.40
23283;DHT22;11810;51.178;3.878;2023-06-14T12:06:26;39.40;52.20
23283;DHT22;11810;51.178;3.878;2023-06-14T12:08:55;38.90;53.70
23283;DHT22;11810;51.178;3.878;2023-06-14T12:11:21;38.30;53.20
23283;DHT22;11810;51.178;3.878;2023-06-14T12:13:49;38.60;53.80
23283;DHT22;11810;51.178;3.878;2023-06-14T12:16:14;39.10;52.90
23283;DHT22;11810;51.178;3.878;2023-06-14T12:18:41;38.60;53.20
23283;DHT22;11810;51.178;3.878;2023-06-14T12:21:09;39.10;53.90
23283;DHT22;11810;51.178;3.878;2023-06-14T12:23:48;39.60;53.30
23283;DHT22;11810;51.178;3.878;2023-06-14T12:26:19;39.90;52.70
23283;DHT22;11810;51.178;3.878;2023-06-14T12:28:47;39.30;53.80
23283;DHT22;11810;51.178;3.878;2023-06-14T12:31:15;39.30;53.60
23283;DHT22;11810;51.178;3.878;2023-06-14T12:33:42;39.00;52.70
23283;DHT22;11810;51.178;3.878;2023-06-14T12:36:10;39.40;53.10
23283;DHT22;11810;51.178;3.878;2023-06-14T12:38:36;39.40;52.90
23283;DHT22;11810;51.178;3.878;2023-06-14T12:41:03;39.00;51.80
23283;DHT22;11810;51.178;3.878;2023-06-14T12:43:29;38.50;52.30
23283;DHT22;11810;51.178;3.878;2023-06-14T12:45:55;38.30;52.70
23283;DHT22;11810;51.178;3.878;2023-06-14T12:48:21;37.70;54.20
23283;DHT22;11810;51.178;3.878;2023-06-14T12:50:48;38.00;53.20
23283;DHT22;11810;51.178;3.878;2023-06-14T12:53:14;38.20;53.10
23283;DHT22;11810;51.178;3.878;2023-06-14T12:55:40;38.60;52.60
23283;DHT22;11810;51.178;3.878;2023-06-14T12:58:06;38.80;51.80
23283;DHT22;11810;51.178;3.878;2023-06-14T13:00:32;38.70;52.10
23283;DHT22;11810;51.178;3.878;2023-06-14T13:02:58;39.00;52.00
23283;DHT22;11810;51.178;3.878;2023-06-14T13:05:24;39.20;52.50
23283;DHT22;11810;51.178;3.878;2023-06-14T13:07:51;38.70;52.10
23283;DHT22;11810;51.178;3.878;2023-06-14T13:10:17;38.40;52.90
23283;DHT22;11810;51.178;3.878;2023-06-14T13:12:43;38.70;52.60
23283;DHT22;11810;51.178;3.878;2023-06-14T13:15:10;38.20;51.90
23283;DHT22;11810;51.178;3.878;2023-06-14T13:17:36;38.10;52.20
23283;DHT22;11810;51.178;3.878;2023-06-14T13:20:08;38.10;52.90
23283;DHT22;11810;51.178;3.878;2023-06-14T13:22:35;38.00;53.10
23283;DHT22;11810;51.178;3.878;2023-06-14T13:25:01;37.70;52.50
23283;DHT22;11810;51.178;3.878;2023-06-14T13:27:27;37.70;52.80
23283;DHT22;11810;51.178;3.878;2023-06-14T13:29:54;37.50;53.40
23283;DHT22;11810;51.178;3.878;2023-06-14T13:32:21;37.00;54.00
23283;DHT22;11810;51.178;3.878;2023-06-14T13:34:48;36.90;53.50
23283;DHT22;11810;51.178;3.878;2023-06-14T13:37:14;36.70;54.20
23283;DHT22;11810;51.178;3.878;2023-06-14T13:39:40;36.70;53.70
23283;DHT22;11810;51.178;3.878;2023-06-14T13:42:06;37.20;53.70
23283;DHT22;11810;51.178;3.878;2023-06-14T13:44:32;37.20;54.50
23283;DHT22;11810;51.178;3.878;2023-06-14T13:46:58;37.20;53.80
23283;DHT22;11810;51.178;3.878;2023-06-14T13:49:24;36.50;54.40
23283;DHT22;11810;51.178;3.878;2023-06-14T13:51:50;36.40;55.00
23283;DHT22;11810;51.178;3.878;2023-06-14T13:54:20;36.70;54.50
23283;DHT22;11810;51.178;3.878;2023-06-14T13:56:47;36.80;53.80
23283;DHT22;11810;51.178;3.878;2023-06-14T13:59:13;36.70;53.70
23283;DHT22;11810;51.178;3.878;2023-06-14T14:01:39;36.80;53.30
23283;DHT22;11810;51.178;3.878;2023-06-14T14:04:05;36.20;53.50
23283;DHT22;11810;51.178;3.878;2023-06-14T14:06:31;35.70;54.80
23283;DHT22;11810;51.178;3.878;2023-06-14T14:08:57;35.70;54.30
23283;DHT22;11810;51.178;3.878;2023-06-14T14:11:23;35.80;53.60
23283;DHT22;11810;51.178;3.878;2023-06-14T14:13:49;35.60;54.60
23283;DHT22;11810;51.178;3.878;2023-06-14T14:16:15;35.80;53.40
23283;DHT22;11810;51.178;3.878;2023-06-14T14:18:41;36.20;53.80
23283;DHT22;11810;51.178;3.878;2023-06-14T14:21:07;36.20;54.10
23283;DHT22;11810;51.178;3.878;2023-06-14T14:23:33;35.70;54.10
23283;DHT22;11810;51.178;3.878;2023-06-14T14:25:59;35.50;54.40
23283;DHT22;11810;51.178;3.878;2023-06-14T14:28:29;35.60;53.70
23283;DHT22;11810;51.178;3.878;2023-06-14T14:30:55;35.50;53.70
23283;DHT22;11810;51.178;3.878;2023-06-14T14:33:21;35.80;52.60
23283;DHT22;11810;51.178;3.878;2023-06-14T14:35:47;35.40;53.50
23283;DHT22;11810;51.178;3.878;2023-06-14T14:38:16;35.60;53.40
23283;DHT22;11810;51.178;3.878;2023-06-14T14:40:43;35.50;53.20
23283;DHT22;11810;51.178;3.878;2023-06-14T14:43:10;35.30;53.50
23283;DHT22;11810;51.178;3.878;2023-06-14T14:45:36;35.40;53.50
23283;DHT22;11810;51.178;3.878;2023-06-14T14:48:02;35.10;52.90
23283;DHT22;11810;51.178;3.878;2023-06-14T14:50:29;34.70;53.60
23283;DHT22;11810;51.178;3.878;2023-06-14T14:52:55;34.80;54.60
23283;DHT22;11810;51.178;3.878;2023-06-14T14:55:22;35.00;52.60
23283;DHT22;11810;51.178;3.878;2023-06-14T14:57:48;34.90;54.20
23283;DHT22;11810;51.178;3.878;2023-06-14T15:00:14;35.20;52.70
23283;DHT22;11810;51.178;3.878;2023-06-14T15:02:40;34.80;53.90
23283;DHT22;11810;51.178;3.878;2023-06-14T15:05:06;34.50;53.90
23283;DHT22;11810;51.178;3.878;2023-06-14T15:07:33;34.10;54.30
23283;DHT22;11810;51.178;3.878;2023-06-14T15:10:00;33.80;55.00
23283;DHT22;11810;51.178;3.878;2023-06-14T15:12:26;33.50;55.00
23283;DHT22;11810;51.178;3.878;2023-06-14T15:14:53;33.10;55.20
23283;DHT22;11810;51.178;3.878;2023-06-14T15:17:20;32.80;56.00
23283;DHT22;11810;51.178;3.878;2023-06-14T15:19:47;32.50;56.60
23283;DHT22;11810;51.178;3.878;2023-06-14T15:22:13;32.60;56.50
23283;DHT22;11810;51.178;3.878;2023-06-14T15:24:43;32.40;56.50
23283;DHT22;11810;51.178;3.878;2023-06-14T15:27:09;32.20;56.90
23283;DHT22;11810;51.178;3.878;2023-06-14T15:29:36;32.10;56.70
23283;DHT22;11810;51.178;3.878;2023-06-14T15:32:02;31.80;57.60
23283;DHT22;11810;51.178;3.878;2023-06-14T15:34:28;32.30;57.20
23283;DHT22;11810;51.178;3.878;2023-06-14T15:36:54;32.50;58.10
23283;DHT22;11810;51.178;3.878;2023-06-14T15:39:21;32.50;56.50
23283;DHT22;11810;51.178;3.878;2023-06-14T15:41:47;32.20;56.60
23283;DHT22;11810;51.178;3.878;2023-06-14T15:44:13;32.10;57.10
23283;DHT22;11810;51.178;3.878;2023-06-14T15:46:39;32.00;57.20
23283;DHT22;11810;51.178;3.878;2023-06-14T15:49:12;31.80;56.60
23283;DHT22;11810;51.178;3.878;2023-06-14T15:51:39;31.80;57.00